LVJUK XMGI-SADM

Flight info

Callsign LVJUK
Flight time N/A
Altitude 3000
Route SABE
Aircraft C172/L-SFG/C

Departure

Time N/A
Airport XMGI

Arrival

Time 2026-04-20 05:03
Airport Morón Airport (SADM)
Time Latitude Longitude Altitude Speed Heading
2026-04-20 04:28 -34.18669 -58.25339 11 ft 0 kts 73°
2026-04-20 04:30 -34.18666 -58.25324 11 ft 7 kts 73°
2026-04-20 04:31 -34.18656 -58.25303 11 ft 2 kts 352°
2026-04-20 04:31 -34.18634 -58.25318 11 ft 4 kts 346°
2026-04-20 04:31 -34.18612 -58.25285 11 ft 5 kts 71°
2026-04-20 04:31 -34.18606 -58.25253 11 ft 6 kts 115°
2026-04-20 04:32 -34.18649 -58.25233 11 ft 4 kts 167°
2026-04-20 04:32 -34.18687 -58.25220 11 ft 6 kts 153°
2026-04-20 04:32 -34.18694 -58.25178 11 ft 8 kts 89°
2026-04-20 04:32 -34.18694 -58.25155 11 ft 0 kts 89°
2026-04-20 04:33 -34.18694 -58.25124 11 ft 2 kts 89°
2026-04-20 04:33 -34.18693 -58.25108 11 ft 8 kts 88°
2026-04-20 04:34 -34.18701 -58.25049 11 ft 11 kts 143°
2026-04-20 04:34 -34.18762 -58.25023 11 ft 6 kts 163°
2026-04-20 04:34 -34.18809 -58.25003 11 ft 10 kts 145°
2026-04-20 04:34 -34.18833 -58.24997 11 ft 4 kts 319°
2026-04-20 04:35 -34.18826 -58.25001 11 ft 0 kts 342°
2026-04-20 04:35 -34.18738 -58.25032 11 ft 29 kts 345°
2026-04-20 04:35 -34.18420 -58.25145 12 ft 69 kts 342°
2026-04-20 04:35 -34.17945 -58.25344 168 ft 79 kts 337°
2026-04-20 04:36 -34.16906 -58.26001 483 ft 91 kts 299°
2026-04-20 04:36 -34.16901 -58.26762 598 ft 95 kts 238°
2026-04-20 04:36 -34.17356 -58.27327 741 ft 97 kts 215°
2026-04-20 04:37 -34.17881 -58.27821 862 ft 102 kts 204°
2026-04-20 04:37 -34.18457 -58.28117 1154 ft 81 kts 181°
2026-04-20 04:37 -34.19010 -58.28252 1305 ft 87 kts 173°
2026-04-20 04:37 -34.19623 -58.28313 1458 ft 91 kts 172°
2026-04-20 04:38 -34.20303 -58.28361 1525 ft 98 kts 172°
2026-04-20 04:38 -34.20969 -58.28399 1701 ft 96 kts 173°
2026-04-20 04:38 -34.21576 -58.28598 2011 ft 85 kts 201°
2026-04-20 04:38 -34.22096 -58.28995 2173 ft 90 kts 208°
2026-04-20 04:39 -34.22595 -58.29440 2378 ft 90 kts 210°
2026-04-20 04:39 -34.23131 -58.29849 2571 ft 90 kts 211°
2026-04-20 04:39 -34.23691 -58.30201 2750 ft 93 kts 208°
2026-04-20 04:39 -34.24261 -58.30502 2996 ft 87 kts 202°
2026-04-20 04:40 -34.24916 -58.30793 2967 ft 112 kts 202°
2026-04-20 04:40 -34.25639 -58.31105 3134 ft 108 kts 201°
2026-04-20 04:40 -34.26372 -58.31409 3196 ft 115 kts 201°
2026-04-20 04:40 -34.27131 -58.31711 3288 ft 115 kts 200°
2026-04-20 04:41 -34.27910 -58.32002 3361 ft 116 kts 199°
2026-04-20 04:41 -34.28690 -58.32259 3424 ft 118 kts 197°
2026-04-20 04:41 -34.29509 -58.32511 3400 ft 124 kts 199°
2026-04-20 04:41 -34.30300 -58.32892 3433 ft 122 kts 208°
2026-04-20 04:42 -34.31069 -58.33322 3444 ft 121 kts 209°
2026-04-20 04:42 -34.31831 -58.33765 3399 ft 123 kts 210°
2026-04-20 04:42 -34.32598 -58.34223 3379 ft 122 kts 210°
2026-04-20 04:42 -34.33355 -58.34691 3314 ft 126 kts 211°
2026-04-20 04:43 -34.34146 -58.35195 3221 ft 127 kts 212°
2026-04-20 04:43 -34.34897 -58.35694 3232 ft 122 kts 213°
2026-04-20 04:43 -34.35660 -58.36203 3137 ft 127 kts 211°
2026-04-20 04:43 -34.36444 -58.36675 3104 ft 125 kts 201°
2026-04-20 04:44 -34.37263 -58.36935 3143 ft 121 kts 198°
2026-04-20 04:44 -34.38089 -58.37237 3063 ft 126 kts 199°
2026-04-20 04:44 -34.38912 -58.37554 3079 ft 122 kts 199°
2026-04-20 04:44 -34.39715 -58.37856 3092 ft 120 kts 199°
2026-04-20 04:45 -34.40518 -58.38148 3103 ft 121 kts 198°
2026-04-20 04:45 -34.41326 -58.38434 3128 ft 120 kts 198°
2026-04-20 04:45 -34.42131 -58.38713 3140 ft 121 kts 198°
2026-04-20 04:45 -34.42933 -58.38975 3157 ft 121 kts 196°
2026-04-20 04:46 -34.43747 -58.39209 3177 ft 121 kts 194°
2026-04-20 04:46 -34.44579 -58.39416 3183 ft 123 kts 193°
2026-04-20 04:46 -34.45439 -58.39692 3147 ft 127 kts 198°
2026-04-20 04:46 -34.46249 -58.40002 3145 ft 129 kts 200°
2026-04-20 04:47 -34.47122 -58.40354 3051 ft 134 kts 201°
2026-04-20 04:47 -34.48000 -58.40759 2967 ft 134 kts 205°
2026-04-20 04:47 -34.48874 -58.41253 2661 ft 147 kts 207°
2026-04-20 04:47 -34.49767 -58.41847 2333 ft 141 kts 207°
2026-04-20 04:48 -34.50550 -58.42500 2039 ft 129 kts 208°
2026-04-20 04:48 -34.51245 -58.43138 1698 ft 127 kts 211°
2026-04-20 04:48 -34.51966 -58.43797 1353 ft 129 kts 210°
2026-04-20 04:48 -34.52686 -58.44343 1136 ft 110 kts 192°
2026-04-20 04:49 -34.53353 -58.44552 918 ft 96 kts 175°
2026-04-20 04:49 -34.53898 -58.44490 825 ft 64 kts 155°
2026-04-20 04:49 -34.54276 -58.44265 668 ft 61 kts 143°
2026-04-20 04:49 -34.54584 -58.43911 517 ft 61 kts 126°
2026-04-20 04:50 -34.54819 -58.43525 381 ft 55 kts 123°
2026-04-20 04:50 -34.55031 -58.43153 221 ft 54 kts 126°
2026-04-20 04:50 -34.55250 -58.42773 158 ft 55 kts 123°
2026-04-20 04:50 -34.55459 -58.42399 70 ft 53 kts 123°
2026-04-20 04:51 -34.55664 -58.42035 35 ft 49 kts 123°
2026-04-20 04:51 -34.55836 -58.41731 22 ft 37 kts 124°
2026-04-20 04:51 -34.55934 -58.41540 57 ft 47 kts 118°
2026-04-20 04:51 -34.56221 -58.41057 239 ft 64 kts 124°
2026-04-20 04:52 -34.56490 -58.40539 329 ft 80 kts 122°
2026-04-20 04:52 -34.56689 -58.40157 426 ft 81 kts 122°
2026-04-20 04:52 -34.57001 -58.39553 492 ft 89 kts 122°
2026-04-20 04:52 -34.57337 -58.38924 695 ft 71 kts 129°
2026-04-20 04:53 -34.57773 -58.38755 990 ft 78 kts 160°
2026-04-20 04:53 -34.58357 -58.38637 1063 ft 89 kts 157°
2026-04-20 04:53 -34.58957 -58.38474 1220 ft 86 kts 154°
2026-04-20 04:53 -34.59604 -58.38366 1318 ft 95 kts 166°
2026-04-20 04:54 -34.60257 -58.38361 1527 ft 88 kts 170°
2026-04-20 04:54 -34.60801 -58.38659 1780 ft 97 kts 231°
2026-04-20 04:54 -34.61176 -58.39368 1986 ft 94 kts 226°
2026-04-20 04:54 -34.61505 -58.40022 2208 ft 94 kts 230°
2026-04-20 04:55 -34.61901 -58.40735 2262 ft 110 kts 230°
2026-04-20 04:55 -34.62348 -58.41470 2475 ft 103 kts 234°
2026-04-20 04:55 -34.62815 -58.42172 2608 ft 106 kts 234°
2026-04-20 04:55 -34.63315 -58.42859 2650 ft 116 kts 234°
2026-04-20 04:56 -34.63843 -58.43644 2653 ft 119 kts 236°
2026-04-20 04:56 -34.64343 -58.44411 2736 ft 117 kts 237°
2026-04-20 04:56 -34.64834 -58.45200 2770 ft 119 kts 238°
2026-04-20 04:56 -34.65328 -58.46036 2782 ft 120 kts 240°
2026-04-20 04:57 -34.65694 -58.46916 2786 ft 119 kts 254°
2026-04-20 04:57 -34.65899 -58.47856 2828 ft 113 kts 271°
2026-04-20 04:57 -34.65862 -58.48804 2822 ft 111 kts 287°
2026-04-20 04:57 -34.65690 -58.49692 2802 ft 106 kts 291°
2026-04-20 04:58 -34.65504 -58.50547 2756 ft 101 kts 292°
2026-04-20 04:58 -34.65319 -58.51387 2665 ft 104 kts 292°
2026-04-20 04:58 -34.65149 -58.52212 2639 ft 101 kts 291°
2026-04-20 04:58 -34.64980 -58.53064 2562 ft 103 kts 291°
2026-04-20 04:59 -34.64799 -58.53920 2476 ft 108 kts 291°
2026-04-20 04:59 -34.64588 -58.54831 2347 ft 115 kts 291°
2026-04-20 04:59 -34.64338 -58.55754 2277 ft 116 kts 293°
2026-04-20 04:59 -34.64058 -58.56689 2125 ft 118 kts 290°
2026-04-20 05:00 -34.63765 -58.57617 1991 ft 118 kts 289°
2026-04-20 05:00 -34.63576 -58.58607 1842 ft 121 kts 270°
2026-04-20 05:00 -34.63688 -58.59600 1704 ft 123 kts 262°
2026-04-20 05:00 -34.63735 -58.60645 1546 ft 125 kts 269°
2026-04-20 05:01 -34.63771 -58.61683 1350 ft 120 kts 264°
2026-04-20 05:01 -34.63972 -58.62594 1205 ft 99 kts 231°
2026-04-20 05:01 -34.64380 -58.63222 1036 ft 94 kts 207°
2026-04-20 05:01 -34.64914 -58.63535 841 ft 77 kts 185°
2026-04-20 05:02 -34.65418 -58.63651 619 ft 72 kts 188°
2026-04-20 05:02 -34.65891 -58.63779 426 ft 66 kts 193°
2026-04-20 05:02 -34.66332 -58.63908 248 ft 63 kts 194°
2026-04-20 05:02 -34.66749 -58.64028 151 ft 66 kts 193°
2026-04-20 05:03 -34.67167 -58.64151 105 ft 54 kts 193°
2026-04-20 05:03 -34.67465 -58.64238 102 ft 35 kts 193°
2026-04-20 05:03 -34.67628 -58.64264 102 ft 8 kts 128°
2026-04-20 05:03 -34.67638 -58.64238 102 ft 5 kts 109°
2026-04-20 05:04 -34.67649 -58.64184 102 ft 4 kts 101°
2026-04-20 05:04 -34.67658 -58.64130 102 ft 11 kts 102°
2026-04-20 05:04 -34.67666 -58.64047 102 ft 9 kts 53°
2026-04-20 05:04 -34.67623 -58.64027 102 ft 1 kts 11°
2026-04-20 05:05 -34.67569 -58.64011 102 ft 10 kts 15°
2026-04-20 05:05 -34.67509 -58.63994 102 ft 14 kts 14°
2026-04-20 05:05 -34.67420 -58.63969 102 ft 12 kts 13°
2026-04-20 05:06 -34.67335 -58.63946 102 ft 11 kts 13°
2026-04-20 05:06 -34.67300 -58.63936 102 ft 0 kts 13°
2026-04-20 05:06 -34.67296 -58.63935 102 ft 4 kts 13°
2026-04-20 05:06 -34.67203 -58.63908 102 ft 22 kts 14°
2026-04-20 05:07 -34.67065 -58.63868 102 ft 16 kts 13°
2026-04-20 05:07 -34.66951 -58.63834 102 ft 14 kts 11°
2026-04-20 05:07 -34.66873 -58.63811 102 ft 12 kts 14°
2026-04-20 05:07 -34.66783 -58.63785 102 ft 12 kts 13°
2026-04-20 05:08 -34.66681 -58.63757 102 ft 17 kts 12°
2026-04-20 05:08 -34.66563 -58.63721 102 ft 18 kts 13°
2026-04-20 05:08 -34.66459 -58.63763 102 ft 15 kts 317°
2026-04-20 05:08 -34.66400 -58.63843 102 ft 11 kts 306°
2026-04-20 05:09 -34.66363 -58.63924 102 ft 14 kts 289°
2026-04-20 05:09 -34.66336 -58.64049 102 ft 16 kts 282°
2026-04-20 05:09 -34.66338 -58.64129 102 ft 7 kts 191°
2026-04-20 05:09 -34.66404 -58.64147 102 ft 9 kts 193°
2026-04-20 05:10 -34.66430 -58.64155 102 ft 3 kts 193°
2026-04-20 05:10 -34.66501 -58.64177 102 ft 13 kts 191°
2026-04-20 05:10 -34.66610 -58.64184 102 ft 18 kts 180°
2026-04-20 05:10 -34.66694 -58.64244 102 ft 14 kts 232°
2026-04-20 05:11 -34.66720 -58.64326 102 ft 6 kts 254°
2026-04-20 05:11 -34.66695 -58.64352 102 ft 4 kts 348°
2026-04-20 05:11 -34.66673 -58.64359 102 ft 7 kts 346°
2026-04-20 05:11 -34.66571 -58.64390 102 ft 14 kts 355°
2026-04-20 05:12 -34.66540 -58.64365 102 ft 3 kts 18°
2026-04-20 05:12 -34.66538 -58.64362 102 ft 0 kts 59°